Time;durP1;ratioP1;P1;durP2;ratioP2;P2;SDS_P1;SDS_P2;PMS_P1;PMS_P2;Temp;Humidity;BMP_temperature;BMP_pressure;BME280_temperature;BME280_humidity;BME280_pressure;Samples;Min_cycle;Max_cycle;Signal;HPM_P1;HPM_P2
2021/01/20 00:00:24;;;;;;;8.98;3.08;;;;;;;;;;4851045;29;20056;-89
2021/01/20 00:02:55;;;;;;;9.30;4.40;;;;;;;;;;4853915;29;20050;-89
2021/01/20 00:05:25;;;;;;;9.88;4.68;;;;;;;;;;4849691;29;20066;-86
2021/01/20 00:07:54;;;;;;;13.90;5.25;;;;;;;;;;4844733;29;20062;-88
2021/01/20 00:10:22;;;;;;;12.80;4.03;;;;;;;;;;4847284;29;20062;-86
2021/01/20 00:12:50;;;;;;;6.50;3.83;;;;;;;;;;4826686;29;20074;-87
2021/01/20 00:15:22;;;;;;;9.90;3.55;;;;;;;;;;4854806;29;20054;-86
2021/01/20 00:17:50;;;;;;;12.38;4.03;;;10.50;99.90;;;;;;4854684;29;20058;-87
2021/01/20 00:20:20;;;;;;;8.80;4.05;;;;;;;;;;4853477;29;20062;-85
2021/01/20 00:22:49;;;;;;;10.35;3.85;;;;;;;;;;4844273;29;20084;-85
2021/01/20 00:25:18;;;;;;;5.93;3.83;;;10.60;99.90;;;;;;4855562;29;20054;-86
2021/01/20 00:27:47;;;;;;;5.55;3.78;;;;;;;;;;4840038;29;20065;-87
2021/01/20 00:30:18;;;;;;;3.92;2.47;;;;;;;;;;4855826;29;20069;-84
2021/01/20 00:32:46;;;;;;;10.18;5.18;;;;;;;;;;4839428;29;20062;-88
2021/01/20 00:35:22;;;;;;;5.78;3.10;;;10.50;99.90;;;;;;4852619;29;20064;-85
2021/01/20 00:37:50;;;;;;;5.32;2.78;;;;;;;;;;4830505;29;20056;-88
2021/01/20 00:40:18;;;;;;;5.15;2.70;;;;;;;;;;4841407;29;20060;-84
2021/01/20 00:42:48;;;;;;;5.10;2.83;;;;;;;;;;4859705;29;20057;-85
2021/01/20 00:45:18;;;;;;;6.53;2.92;;;;;;;;;;4860649;29;20050;-85
2021/01/20 00:47:49;;;;;;;7.20;2.63;;;;;;;;;;4841059;29;20136;-85
2021/01/20 00:50:17;;;;;;;8.52;3.45;;;;;;;;;;4843302;29;20065;-85
2021/01/20 00:52:46;;;;;;;8.13;4.53;;;;;;;;;;4855883;29;20068;-86
2021/01/20 00:55:16;;;;;;;6.55;2.72;;;;;;;;;;4821208;29;20050;-90
2021/01/20 00:57:48;;;;;;;6.15;2.38;;;;;;;;;;4817477;29;20081;-87
2021/01/20 01:00:17;;;;;;;7.25;2.95;;;;;;;;;;4839149;29;20057;-89
2021/01/20 01:02:47;;;;;;;4.78;2.13;;;;;;;;;;4825093;29;20403;-87
2021/01/20 01:05:17;;;;;;;6.15;2.55;;;;;;;;;;4826891;29;20065;-88
2021/01/20 01:07:52;;;;;;;5.55;3.03;;;;;;;;;;4854646;29;20050;-83
2021/01/20 01:10:21;;;;;;;4.25;2.33;;;;;;;;;;4853919;29;20050;-89
2021/01/20 01:13:05;;;;;;;5.70;2.08;;;;;;;;;;4839633;29;20050;-88
2021/01/20 01:15:37;;;;;;;3.30;1.33;;;;;;;;;;4823501;29;20065;-85
2021/01/20 01:18:04;;;;;;;5.00;2.90;;;;;;;;;;4828932;29;20054;-87
2021/01/20 01:20:33;;;;;;;3.80;2.17;;;;;;;;;;4835468;29;20054;-88
2021/01/20 01:23:01;;;;;;;9.07;3.28;;;;;;;;;;4852026;29;20074;-85
2021/01/20 01:25:30;;;;;;;1.77;1.40;;;;;;;;;;4833632;29;20054;-87
2021/01/20 01:28:11;;;;;;;4.57;2.00;;;10.40;99.90;;;;;;4834142;29;20062;-85
2021/01/20 01:30:51;;;;;;;4.57;2.13;;;;;;;;;;4836730;29;20050;-87
2021/01/20 01:33:21;;;;;;;5.00;1.70;;;;;;;;;;4841442;29;20074;-86
2021/01/20 01:35:50;;;;;;;4.32;1.92;;;;;;;;;;4824051;29;20054;-85
2021/01/20 01:38:19;;;;;;;5.55;2.38;;;;;;;;;;4825766;29;20053;-83
2021/01/20 01:40:50;;;;;;;1.90;1.70;;;;;;;;;;4840934;29;20621;-84
2021/01/20 01:43:43;;;;;;;4.43;2.00;;;;;;;;;;4817566;29;20062;-83
2021/01/20 01:46:40;;;;;;;5.05;2.30;;;;;;;;;;4804193;29;20053;-84
2021/01/20 01:49:21;;;;;;;2.75;1.67;;;;;;;;;;4825763;29;20057;-85
2021/01/20 01:51:51;;;;;;;3.78;1.70;;;10.30;99.90;;;;;;4486352;29;10000294;-87
2021/01/20 01:54:40;;;;;;;2.83;1.60;;;10.50;99.90;;;;;;4837137;29;20062;-83
2021/01/20 01:57:42;;;;;;;2.92;1.63;;;;;;;;;;4840747;29;20065;-85
2021/01/20 02:00:14;;;;;;;5.90;1.70;;;10.50;99.90;;;;;;4827358;29;20062;-82
2021/01/20 02:02:53;;;;;;;6.38;2.00;;;;;;;;;;4816062;29;20072;-84
2021/01/20 02:05:26;;;;;;;6.88;2.85;;;;;;;;;;4843583;29;20451;-86
2021/01/20 02:07:57;;;;;;;14.35;3.58;;;;;;;;;;4832390;29;20054;-85
2021/01/20 02:10:33;;;;;;;5.40;2.03;;;;;;;;;;4828921;29;20074;-86
2021/01/20 02:13:30;;;;;;;5.65;2.15;;;10.50;99.90;;;;;;4825964;29;20054;-84
2021/01/20 02:16:25;;;;;;;5.85;2.78;;;10.40;99.90;;;;;;4843364;29;20054;-84
2021/01/20 02:19:09;;;;;;;8.23;1.73;;;10.50;99.90;;;;;;4818651;29;20053;-83
2021/01/20 02:22:11;;;;;;;4.47;1.98;;;10.40;99.90;;;;;;4828751;29;20074;-85
2021/01/20 02:25:17;;;;;;;4.35;2.05;;;10.30;99.90;;;;;;4837937;29;20073;-85
2021/01/20 02:28:19;;;;;;;4.47;2.40;;;10.30;99.90;;;;;;4817931;29;20054;-84
2021/01/20 02:31:14;;;;;;;6.43;3.80;;;10.40;99.90;;;;;;4837740;29;20082;-86
2021/01/20 02:33:53;;;;;;;3.40;1.88;;;10.50;99.90;;;;;;4816756;29;20050;-84
2021/01/20 02:36:32;;;;;;;8.80;2.58;;;;;;;;;;4811646;29;20058;-86
2021/01/20 02:39:24;;;;;;;6.38;3.20;;;;;;;;;;4809122;29;20061;-86
2021/01/20 02:42:10;;;;;;;7.45;2.38;;;;;;;;;;4811835;29;20073;-84
2021/01/20 02:45:00;;;;;;;4.55;2.95;;;;;;;;;;4799133;29;20062;-84
2021/01/20 02:47:41;;;;;;;2.85;1.88;;;10.40;99.90;;;;;;4829909;29;20058;-87
2021/01/20 02:50:16;;;;;;;15.60;3.42;;;;;;;;;;4787961;29;20053;-87
2021/01/20 02:53:09;;;;;;;6.93;2.35;;;10.50;99.90;;;;;;4800523;29;20050;-85
2021/01/20 02:56:05;;;;;;;10.93;1.98;;;10.40;99.90;;;;;;4816348;29;20054;-88
2021/01/20 02:58:50;;;;;;;10.52;2.22;;;10.80;99.90;;;;;;4821012;29;20054;-85
2021/01/20 03:01:49;;;;;;;7.00;2.80;;;10.40;99.90;;;;;;4814574;29;20050;-83
2021/01/20 03:04:19;;;;;;;7.10;2.22;;;10.30;99.90;;;;;;4808644;29;20059;-84
2021/01/20 03:06:47;;;;;;;6.03;1.63;;;;;;;;;;4832705;29;20043;-86
2021/01/20 03:09:15;;;;;;;3.20;2.63;;;10.30;99.90;;;;;;4830708;29;20050;-87
2021/01/20 03:11:52;;;;;;;12.52;2.90;;;10.30;99.90;;;;;;4841118;29;20047;-88
2021/01/20 03:14:22;;;;;;;2.75;1.45;;;10.20;99.90;;;;;;4808892;29;20472;-87
2021/01/20 03:16:50;;;;;;;3.08;2.08;;;;;;;;;;4831085;29;20054;-86
2021/01/20 03:19:18;;;;;;;9.45;2.08;;;;;;;;;;4823580;29;20064;-87
2021/01/20 03:21:46;;;;;;;8.25;2.42;;;;;;;;;;4831391;29;20423;-86
2021/01/20 03:24:15;;;;;;;11.85;1.80;;;;;;;;;;4831467;29;20059;-87
2021/01/20 03:26:43;;;;;;;9.18;2.88;;;;;;;;;;4815426;29;20061;-84
2021/01/20 03:29:12;;;;;;;5.28;1.85;;;;;;;;;;4821277;29;20060;-88
2021/01/20 03:31:40;;;;;;;4.70;1.75;;;;;;;;;;4816065;29;20255;-85
2021/01/20 03:34:08;;;;;;;7.05;1.67;;;;;;;;;;4837075;29;20510;-86
2021/01/20 03:36:36;;;;;;;3.13;1.80;;;;;;;;;;4851358;29;20058;-86
2021/01/20 03:39:03;;;;;;;5.13;1.60;;;;;;;;;;4824295;29;20050;-88
2021/01/20 03:41:33;;;;;;;8.38;2.45;;;;;;;;;;4853270;29;20053;-87
2021/01/20 03:44:09;;;;;;;5.22;1.85;;;;;;;;;;4840462;29;20057;-87
2021/01/20 03:46:37;;;;;;;8.18;2.08;;;;;;;;;;4854209;29;20061;-85
2021/01/20 03:49:07;;;;;;;5.57;2.22;;;;;;;;;;4837244;29;20061;-84
2021/01/20 03:51:35;;;;;;;4.70;1.70;;;;;;;;;;4852362;29;20050;-89
2021/01/20 03:54:02;;;;;;;11.52;2.65;;;;;;;;;;4841827;29;20058;-86
2021/01/20 03:56:35;;;;;;;5.35;1.92;;;;;;;;;;4854489;29;20064;-90
2021/01/20 03:59:03;;;;;;;4.85;1.95;;;;;;;;;;4853122;29;20050;-88
2021/01/20 04:01:31;;;;;;;2.78;1.42;;;;;;;;;;4865691;29;20064;-88
2021/01/20 04:03:59;;;;;;;12.70;2.95;;;;;;;;;;4853094;29;20072;-87
2021/01/20 04:06:33;;;;;;;7.22;1.73;;;;;;;;;;4836915;29;20152;-89
2021/01/20 04:09:01;;;;;;;5.22;1.67;;;;;;;;;;4835512;29;20077;-87
2021/01/20 04:11:30;;;;;;;9.68;4.38;;;;;;;;;;4817998;29;20419;-90
2021/01/20 04:13:59;;;;;;;5.25;2.88;;;;;;;;;;4828867;29;20073;-87
2021/01/20 04:16:28;;;;;;;4.00;2.35;;;;;;;;;;4851662;29;20061;-86
2021/01/20 04:18:59;;;;;;;8.23;3.00;;;;;;;;;;4861513;29;20418;-87
2021/01/20 04:21:27;;;;;;;2.53;1.70;;;;;;;;;;4842166;29;20242;-84
2021/01/20 04:23:55;;;;;;;6.60;3.35;;;;;;;;;;4837530;29;20065;-85
2021/01/20 04:26:24;;;;;;;10.18;4.18;;;;;;;;;;4855834;29;20066;-86
2021/01/20 04:28:52;;;;;;;3.15;2.33;;;10.30;99.90;;;;;;4841675;29;20060;-86
2021/01/20 04:31:20;;;;;;;9.88;3.38;;;;;;;;;;4823639;29;20419;-89
2021/01/20 04:33:49;;;;;;;13.93;3.58;;;;;;;;;;4852331;29;20064;-85
2021/01/20 04:36:16;;;;;;;11.77;4.07;;;;;;;;;;4840136;29;20084;-84
2021/01/20 04:38:44;;;;;;;6.97;3.20;;;;;;;;;;4852794;29;20050;-87
2021/01/20 04:41:12;;;;;;;8.88;2.60;;;;;;;;;;4844478;29;20077;-86
2021/01/20 04:43:42;;;;;;;6.03;2.85;;;10.40;99.90;;;;;;4838462;29;20049;-87
2021/01/20 04:46:12;;;;;;;12.98;4.45;;;;;;;;;;4852329;29;20045;-86
2021/01/20 04:48:40;;;;;;;7.03;2.70;;;;;;;;;;4853212;29;20062;-91
2021/01/20 04:51:10;;;;;;;6.90;2.75;;;10.40;99.90;;;;;;4835461;29;20058;-87
2021/01/20 04:53:40;;;;;;;8.10;2.00;;;10.40;99.90;;;;;;4849413;29;20426;-92
2021/01/20 04:56:12;;;;;;;4.00;2.65;;;10.30;99.90;;;;;;4822237;29;20061;-88
2021/01/20 04:58:40;;;;;;;9.80;2.53;;;;;;;;;;4851382;29;20054;-89
2021/01/20 05:01:08;;;;;;;7.97;2.67;;;;;;;;;;4839483;29;20074;-86
2021/01/20 05:03:35;;;;;;;7.40;2.83;;;;;;;;;;4843907;29;20061;-89
2021/01/20 05:06:03;;;;;;;5.75;2.10;;;;;;;;;;4849630;29;20058;-89
2021/01/20 05:08:31;;;;;;;5.03;2.38;;;;;;;;;;4850532;29;20068;-85
2021/01/20 05:11:00;;;;;;;7.10;3.17;;;;;;;;;;4849751;29;20446;-90
2021/01/20 05:13:29;;;;;;;9.20;2.90;;;10.40;99.90;;;;;;4836613;29;20050;-82
2021/01/20 05:15:58;;;;;;;4.30;1.83;;;10.50;99.90;;;;;;4835660;29;20096;-89
2021/01/20 05:18:25;;;;;;;4.63;2.13;;;;;;;;;;4853638;29;20053;-91
2021/01/20 05:20:54;;;;;;;5.88;2.30;;;;;;;;;;4838287;29;20037;-89
2021/01/20 05:23:25;;;;;;;7.03;2.88;;;10.50;99.90;;;;;;4854180;29;20070;-86
2021/01/20 05:25:53;;;;;;;4.78;2.50;;;;;;;;;;4856162;29;20053;-84
2021/01/20 05:28:24;;;;;;;3.63;1.67;;;;;;;;;;4854253;29;20070;-88
2021/01/20 05:31:04;;;;;;;4.63;1.65;;;10.50;99.90;;;;;;4834024;29;20430;-87
2021/01/20 05:33:39;;;;;;;5.78;2.50;;;10.30;99.90;;;;;;4851016;29;20062;-87
2021/01/20 05:36:12;;;;;;;8.70;2.63;;;10.40;99.90;;;;;;4835154;29;20057;-92
2021/01/20 05:38:47;;;;;;;5.05;3.60;;;10.40;99.90;;;;;;4831981;29;20054;-88
2021/01/20 05:41:20;;;;;;;8.70;2.85;;;10.40;99.90;;;;;;4836215;29;20050;-90
2021/01/20 05:43:54;;;;;;;5.53;2.80;;;10.40;99.90;;;;;;4822012;29;20053;-86
2021/01/20 05:46:35;;;;;;;7.28;2.88;;;10.40;99.90;;;;;;4836028;29;20069;-87
2021/01/20 05:49:03;;;;;;;;;;;10.40;99.90;;;;;;4849787;29;20058;-92
2021/01/20 05:51:41;;;;;;;6.93;2.38;;;10.30;99.90;;;;;;4849438;29;19939;-85
2021/01/20 05:54:12;;;;;;;6.68;3.03;;;10.50;99.90;;;;;;4849622;29;20056;-89
2021/01/20 05:56:42;;;;;;;6.32;2.60;;;;;;;;;;4848208;29;20064;-88
2021/01/20 05:59:10;;;;;;;5.60;1.52;;;;;;;;;;4848727;29;20235;-85
2021/01/20 06:01:39;;;;;;;7.28;2.08;;;;;;;;;;4849500;29;20054;-84
2021/01/20 06:04:08;;;;;;;6.78;3.33;;;;;;;;;;4818472;29;20046;-84
2021/01/20 06:06:41;;;;;;;8.57;3.25;;;;;;;;;;4818798;29;20066;-86
2021/01/20 06:09:10;;;;;;;;;;;10.40;99.90;;;;;;4834950;29;20045;-92
2021/01/20 06:11:38;;;;;;;4.10;2.53;;;;;;;;;;4818336;29;19935;-87
2021/01/20 06:14:19;;;;;;;7.30;3.97;;;10.40;99.90;;;;;;4833313;29;20057;-91
2021/01/20 06:16:54;;;;;;;9.88;2.80;;;10.30;99.90;;;;;;4849659;29;20058;-87
2021/01/20 06:19:23;;;;;;;9.40;3.30;;;10.30;99.90;;;;;;4811404;29;20061;-88
2021/01/20 06:22:00;;;;;;;9.70;3.88;;;10.20;99.90;;;;;;4850140;29;20066;-92
2021/01/20 06:24:39;;;;;;;8.55;2.35;;;10.40;99.90;;;;;;4836850;29;20057;-84
2021/01/20 06:27:20;;;;;;;11.40;3.92;;;;;;;;;;4847339;29;20436;-90
2021/01/20 06:30:30;;;;;;;16.50;5.00;;;10.50;99.90;;;;;;4845264;29;20087;-85
2021/01/20 06:33:03;;;;;;;8.80;4.25;;;8.70;99.90;;;;;;4842418;29;20068;-84
2021/01/20 06:35:43;;;;;;;11.35;4.03;;;10.40;99.90;;;;;;4851233;29;20076;-88
2021/01/20 06:38:30;;;;;;;10.55;4.00;;;;;;;;;;4853053;29;20065;-87
2021/01/20 06:41:00;;;;;;;17.60;6.55;;;10.50;99.90;;;;;;4832748;29;20049;-88
2021/01/20 06:43:39;;;;;;;11.75;3.90;;;10.60;99.90;;;;;;4850093;29;20054;-87
2021/01/20 06:46:15;;;;;;;21.10;4.97;;;10.60;99.90;;;;;;4852346;29;20054;-87
2021/01/20 06:48:56;;;;;;;12.98;3.85;;;10.50;99.90;;;;;;4835051;29;20053;-89
2021/01/20 06:51:24;;;;;;;9.27;5.50;;;10.60;99.90;;;;;;4855626;29;20053;-88
2021/01/20 06:54:12;;;;;;;13.80;3.85;;;;;;;;;;4839574;29;20058;-87
2021/01/20 06:56:42;;;;;;;12.32;4.47;;;;;;;;;;4835468;29;20073;-86
2021/01/20 06:59:28;;;;;;;8.10;3.78;;;10.60;99.90;;;;;;4851638;29;20070;-90
2021/01/20 07:02:04;;;;;;;11.90;4.50;;;;;;;;;;4844997;29;20057;-90
2021/01/20 07:04:38;;;;;;;18.17;5.82;;;;;;;;;;4849562;29;20057;-85
2021/01/20 07:07:12;;;;;;;15.50;4.25;;;10.60;99.90;;;;;;4834316;29;20045;-85
2021/01/20 07:09:50;;;;;;;9.18;3.83;;;;;;;;;;4833651;29;20070;-89
2021/01/20 07:12:21;;;;;;;24.27;5.13;;;10.50;99.90;;;;;;4834254;29;20087;-85
2021/01/20 07:14:56;;;;;;;17.05;4.40;;;10.60;99.90;;;;;;4834105;29;20042;-86
2021/01/20 07:17:24;;;;;;;13.32;4.68;;;;;;;;;;4836304;29;20062;-87
2021/01/20 07:19:56;;;;;;;11.75;3.15;;;10.40;99.90;;;;;;4826506;29;20058;-88
2021/01/20 07:22:24;;;;;;;21.83;6.65;;;;;;;;;;4849276;29;20066;-90
2021/01/20 07:24:52;;;;;;;20.15;6.20;;;;;;;;;;4849431;29;20072;-89
2021/01/20 07:27:22;;;;;;;21.23;4.30;;;10.20;99.90;;;;;;4851410;29;20414;-85
2021/01/20 07:29:50;;;;;;;12.53;3.77;;;;;;;;;;4849243;29;20061;-87
2021/01/20 07:32:29;;;;;;;7.38;3.50;;;10.50;99.90;;;;;;4834294;29;20054;-87
2021/01/20 07:34:59;;;;;;;5.97;3.08;;;;;;;;;;4815817;29;20050;-87
2021/01/20 07:37:29;;;;;;;12.50;5.25;;;10.30;99.90;;;;;;4845433;29;20064;-90
2021/01/20 07:40:08;;;;;;;7.90;3.13;;;10.40;99.90;;;;;;4827680;29;20058;-86
2021/01/20 07:42:41;;;;;;;7.55;3.40;;;;;;;;;;4821956;29;20062;-87
2021/01/20 07:45:12;;;;;;;16.98;5.13;;;;;;;;;;4851417;29;20050;-90
2021/01/20 07:47:47;;;;;;;12.20;4.40;;;10.40;99.90;;;;;;4835506;29;20061;-89
2021/01/20 07:50:15;;;;;;;10.02;3.42;;;;;;;;;;4843733;29;20056;-86
2021/01/20 07:52:47;;;;;;;15.00;7.05;;;;;;;;;;4832783;29;20054;-87
2021/01/20 07:55:16;;;;;;;9.60;3.70;;;10.30;99.90;;;;;;4843277;29;20066;-85
2021/01/20 07:57:44;;;;;;;18.40;5.95;;;;;;;;;;4851357;29;20065;-88
2021/01/20 08:00:12;;;;;;;14.05;5.05;;;;;;;;;;4830773;29;20065;-89
2021/01/20 08:02:48;;;;;;;18.13;5.45;;;;;;;;;;4838686;29;20082;-86
2021/01/20 08:05:16;;;;;;;6.15;3.20;;;;;;;;;;4850042;29;20062;-86
2021/01/20 08:07:47;;;;;;;12.90;3.95;;;10.20;99.90;;;;;;4852168;29;20060;-85
2021/01/20 08:10:21;;;;;;;6.30;2.72;;;10.20;99.90;;;;;;4838689;29;20046;-86
2021/01/20 08:12:50;;;;;;;7.90;4.40;;;10.30;99.90;;;;;;4839817;29;20058;-87
2021/01/20 08:15:20;;;;;;;10.18;4.03;;;;;;;;;;4837686;29;20057;-85
2021/01/20 08:17:48;;;;;;;6.57;3.28;;;;;;;;;;4860818;29;20445;-90
2021/01/20 08:20:16;;;;;;;14.93;4.18;;;;;;;;;;4811921;29;20061;-85
2021/01/20 08:22:48;;;;;;;14.35;5.40;;;10.30;99.90;;;;;;4855349;29;20065;-88
2021/01/20 08:25:21;;;;;;;8.68;2.92;;;10.30;99.90;;;;;;4813752;29;20061;-89
2021/01/20 08:27:51;;;;;;;13.85;6.35;;;;;;;;;;4845887;29;20061;-87
2021/01/20 08:30:33;;;;;;;11.95;4.50;;;10.00;99.90;;;;;;4849138;29;20050;-89
2021/01/20 08:33:01;;;;;;;8.00;4.60;;;;;;;;;;4840814;29;20065;-87
2021/01/20 08:35:36;;;;;;;10.77;3.03;;;10.30;99.90;;;;;;4833701;24;20047;-89
2021/01/20 08:39:15;;;;;;;17.13;3.85;;;10.30;99.90;;;;;;4859212;24;20065;-87
2021/01/20 08:42:35;;;;;;;9.10;2.55;;;10.30;99.90;;;;;;4831481;29;20064;-87
2021/01/20 08:45:24;;;;;;;9.60;3.42;;;;;;;;;;4847356;29;20073;-85
2021/01/20 08:48:06;;;;;;;9.35;3.47;;;;;;;;;;4843428;24;20051;-85
2021/01/20 08:50:56;;;;;;;7.68;3.17;;;;;;;;;;4846245;23;20066;-86
2021/01/20 08:53:44;;;;;;;6.25;2.80;;;10.20;99.90;;;;;;4818662;29;20050;-87
2021/01/20 08:56:25;;;;;;;9.85;2.75;;;10.20;99.90;;;;;;4833006;29;20035;-86
2021/01/20 08:59:19;;;;;;;6.13;2.65;;;;;;;;;;4804357;29;20046;-87
2021/01/20 09:01:55;;;;;;;5.75;2.35;;;;;;;;;;4828912;29;20069;-85
2021/01/20 09:04:25;;;;;;;5.47;2.50;;;;;;;;;;4835191;29;20062;-87
2021/01/20 09:07:07;;;;;;;14.65;2.85;;;;;;;;;;4834586;29;20062;-86
2021/01/20 09:09:51;;;;;;;9.63;3.28;;;;;;;;;;4833624;29;20086;-86
2021/01/20 09:12:24;;;;;;;4.95;2.53;;;;;;;;;;4823400;29;20027;-86
2021/01/20 09:15:26;;;;;;;8.65;2.10;;;10.50;99.90;;;;;;4840489;29;20050;-87
2021/01/20 09:18:02;;;;;;;6.32;2.53;;;10.40;99.90;;;;;;4836796;29;20051;-86
2021/01/20 09:20:42;;;;;;;7.95;3.03;;;;;;;;;;4817784;29;20043;-87
2021/01/20 09:23:26;;;;;;;6.47;2.80;;;;;;;;;;4840264;29;20068;-88
2021/01/20 09:25:56;;;;;;;5.35;2.20;;;;;;;;;;4847303;24;20040;-90
2021/01/20 09:28:31;;;;;;;8.98;3.00;;;;;;;;;;4825964;29;20053;-86
2021/01/20 09:31:04;;;;;;;7.70;3.70;;;;;;;;;;4833234;29;20062;-87
2021/01/20 09:33:39;;;;;;;4.10;2.47;;;10.40;99.90;;;;;;4835085;29;20061;-88
2021/01/20 09:36:12;;;;;;;5.57;3.03;;;10.60;99.90;;;;;;4832822;29;20071;-86
2021/01/20 09:38:44;;;;;;;7.63;2.92;;;;;;;;;;4832748;29;20054;-85
2021/01/20 09:41:26;;;;;;;10.85;2.60;;;10.20;99.90;;;;;;4816854;29;20051;-85
2021/01/20 09:43:57;;;;;;;6.10;2.60;;;;;;;;;;4845597;24;20054;-86
2021/01/20 09:46:32;;;;;;;7.32;5.07;;;10.50;99.90;;;;;;4848320;29;20451;-86
2021/01/20 09:49:05;;;;;;;4.90;2.00;;;10.40;99.90;;;;;;4855971;29;20041;-85
2021/01/20 09:51:36;;;;;;;1.63;1.45;;;10.40;99.90;;;;;;4823492;29;20062;-85
2021/01/20 09:54:09;;;;;;;5.15;1.60;;;;;;;;;;4847441;29;20076;-89
2021/01/20 09:56:41;;;;;;;5.40;2.00;;;;;;;;;;4848601;29;20058;-86
2021/01/20 09:59:14;;;;;;;4.05;1.90;;;;;;;;;;4833203;29;20050;-88
2021/01/20 10:01:50;;;;;;;1.98;1.40;;;;;;;;;;4815363;29;20054;-86
2021/01/20 10:04:21;;;;;;;4.75;1.88;;;;;;;;;;4837493;24;20065;-89
2021/01/20 10:07:02;;;;;;;10.40;2.85;;;;;;;;;;4818744;29;20064;-85
2021/01/20 10:09:37;;;;;;;5.50;2.97;;;10.80;99.90;;;;;;4830768;29;20516;-84
2021/01/20 10:12:15;;;;;;;2.75;1.77;;;10.40;99.90;;;;;;4826219;29;20058;-87
2021/01/20 10:14:43;;;;;;;3.92;3.05;;;;;;;;;;4786932;29;20054;-89
2021/01/20 10:17:13;;;;;;;5.07;1.83;;;;;;;;;;4807421;29;20058;-89
2021/01/20 10:19:43;;;;;;;6.45;1.92;;;;;;;;;;4836011;29;20046;-89
2021/01/20 10:22:16;;;;;;;4.47;1.52;;;;;;;;;;4826244;29;20062;-86
2021/01/20 10:24:51;;;;;;;16.95;2.05;;;;;;;;;;4815045;29;20051;-88
2021/01/20 10:27:21;;;;;;;6.15;2.40;;;;;;;;;;4825213;29;20063;-89
2021/01/20 10:29:49;;;;;;;7.03;2.55;;;10.60;99.90;;;;;;4829831;29;20063;-88
2021/01/20 10:32:20;;;;;;;5.20;3.28;;;;;;;;;;4811645;29;20069;-85
2021/01/20 10:34:49;;;;;;;7.85;2.58;;;;;;;;;;4818017;29;20062;-88
2021/01/20 10:37:21;;;;;;;7.70;2.63;;;;;;;;;;4824908;29;20078;-87
2021/01/20 10:39:53;;;;;;;5.15;2.38;;;;;;;;;;4812933;29;20058;-86
2021/01/20 10:42:32;;;;;;;8.40;2.53;;;10.60;99.90;;;;;;4802388;29;20062;-86
2021/01/20 10:45:47;;;;;;;4.65;2.33;;;10.60;99.90;;;;;;4782133;29;20061;-87
2021/01/20 10:48:18;;;;;;;9.50;2.67;;;;;;;;;;4819984;29;20609;-87
2021/01/20 10:50:57;;;;;;;4.45;3.10;;;;;;;;;;4825381;29;20066;-88
2021/01/20 10:53:32;;;;;;;6.97;3.58;;;11.00;99.90;;;;;;4819331;29;20066;-86
2021/01/20 10:56:11;;;;;;;7.68;3.15;;;10.60;99.90;;;;;;4816687;29;20059;-86
2021/01/20 10:58:42;;;;;;;9.07;3.08;;;;;;;;;;4843436;24;20076;-89
2021/01/20 11:01:13;;;;;;;16.40;2.95;;;;;;;;;;4864886;24;20050;-89
2021/01/20 11:03:44;;;;;;;12.77;3.08;;;;;;;;;;4852112;24;20038;-86
2021/01/20 11:06:41;;;;;;;4.03;2.92;;;10.60;99.90;;;;;;4844210;29;20053;-88
2021/01/20 11:09:13;;;;;;;6.63;2.72;;;;;;;;;;4856821;24;20046;-88
2021/01/20 11:11:44;;;;;;;6.72;2.65;;;;;;;;;;4851310;29;20064;-88
2021/01/20 11:14:26;;;;;;;10.73;3.97;;;10.60;99.90;;;;;;4837766;29;20119;-85
2021/01/20 11:17:19;;;;;;;7.28;3.10;;;;;;;;;;4835763;29;20058;-87
2021/01/20 11:19:49;;;;;;;10.50;4.30;;;;;;;;;;4831345;29;20050;-87
2021/01/20 11:22:44;;;;;;;7.65;3.20;;;;;;;;;;4829961;29;20054;-87
2021/01/20 11:25:14;;;;;;;4.68;2.72;;;;;;;;;;4832816;29;20085;-88
2021/01/20 11:27:44;;;;;;;8.77;4.30;;;;;;;;;;4826942;29;20135;-88
2021/01/20 11:30:13;;;;;;;12.60;3.92;;;;;;;;;;4832554;29;20073;-87
2021/01/20 11:32:40;;;;;;;7.93;2.67;;;;;;;;;;4818366;29;20642;-85
2021/01/20 11:35:10;;;;;;;6.85;2.90;;;;;;;;;;4814774;29;20047;-87
2021/01/20 11:37:39;;;;;;;11.98;3.60;;;;;;;;;;4815134;29;20066;-92
2021/01/20 11:40:11;;;;;;;8.30;2.88;;;;;;;;;;4818234;29;20191;-86
2021/01/20 11:42:38;;;;;;;13.15;4.35;;;;;;;;;;4821858;29;20063;-90
2021/01/20 11:45:07;;;;;;;20.05;6.03;;;;;;;;;;4825971;29;20054;-90
2021/01/20 11:47:38;;;;;;;11.27;4.30;;;;;;;;;;4807732;29;20058;-90
2021/01/20 11:50:07;;;;;;;15.98;4.05;;;;;;;;;;4809281;29;20055;-87
2021/01/20 11:52:35;;;;;;;16.90;5.88;;;;;;;;;;4824471;29;20058;-86
2021/01/20 11:55:03;;;;;;;11.35;4.88;;;;;;;;;;4823554;29;20054;-90
2021/01/20 11:57:33;;;;;;;14.90;4.63;;;;;;;;;;4823055;29;20058;-86
2021/01/20 12:00:00;;;;;;;14.77;4.97;;;;;;;;;;4828219;29;20051;-91
2021/01/20 12:02:28;;;;;;;16.92;4.20;;;;;;;;;;4830641;29;20680;-92
2021/01/20 12:04:56;;;;;;;20.10;4.95;;;;;;;;;;4829910;29;20062;-89
2021/01/20 12:07:24;;;;;;;11.45;5.40;;;;;;;;;;4820042;29;20058;-92
2021/01/20 12:09:53;;;;;;;10.80;4.05;;;;;;;;;;4822508;29;20058;-92
2021/01/20 12:12:20;;;;;;;15.15;4.80;;;;;;;;;;4827305;29;20107;-91
2021/01/20 12:14:48;;;;;;;9.63;4.15;;;;;;;;;;4828856;29;20042;-94
2021/01/20 12:17:15;;;;;;;12.70;4.53;;;;;;;;;;4827052;29;20046;-91
2021/01/20 12:19:43;;;;;;;18.15;5.88;;;;;;;;;;4810788;29;20050;-90
2021/01/20 12:22:11;;;;;;;6.57;3.20;;;;;;;;;;4825539;29;20062;-90
2021/01/20 12:24:39;;;;;;;11.27;4.10;;;;;;;;;;4824501;29;20055;-93
2021/01/20 12:27:08;;;;;;;13.27;4.97;;;;;;;;;;4825706;29;20057;-90
2021/01/20 12:29:36;;;;;;;8.15;3.78;;;;;;;;;;4825905;29;20422;-90
2021/01/20 12:32:04;;;;;;;11.27;3.60;;;10.00;99.90;;;;;;4823763;29;20069;-88
2021/01/20 12:34:33;;;;;;;11.90;6.22;;;;;;;;;;4825128;29;20550;-92
2021/01/20 12:37:01;;;;;;;12.77;4.28;;;;;;;;;;4793114;29;20053;-93
2021/01/20 12:39:30;;;;;;;7.57;3.63;;;;;;;;;;4827001;29;20073;-91
2021/01/20 12:42:03;;;;;;;9.18;5.50;;;;;;;;;;4808263;29;20062;-90
2021/01/20 12:44:31;;;;;;;7.20;2.72;;;;;;;;;;4814977;29;20054;-92
2021/01/20 12:47:02;;;;;;;7.65;3.50;;;;;;;;;;4828650;29;20058;-91
2021/01/20 12:49:29;;;;;;;9.77;4.22;;;;;;;;;;4819704;29;20058;-86
2021/01/20 12:51:59;;;;;;;9.23;5.60;;;;;;;;;;4814716;29;20058;-88
2021/01/20 12:54:27;;;;;;;10.77;5.45;;;;;;;;;;4823736;29;20521;-87
2021/01/20 12:56:59;;;;;;;9.32;4.30;;;;;;;;;;4833696;29;20042;-86
2021/01/20 12:59:28;;;;;;;10.52;4.22;;;;;;;;;;4827649;29;20069;-89
2021/01/20 13:01:57;;;;;;;11.10;5.30;;;;;;;;;;4831069;29;20046;-87
2021/01/20 13:04:27;;;;;;;10.05;3.25;;;;;;;;;;4828514;29;20062;-86
2021/01/20 13:06:59;;;;;;;7.95;3.60;;;;;;;;;;4830848;29;20050;-86
2021/01/20 13:09:28;;;;;;;5.22;2.50;;;;;;;;;;4488663;29;10000445;-91
2021/01/20 13:11:57;;;;;;;8.63;3.42;;;;;;;;;;4807178;29;20046;-90
2021/01/20 13:14:25;;;;;;;12.85;4.00;;;;;;;;;;4815002;29;20063;-91
2021/01/20 13:16:53;;;;;;;8.90;4.20;;;10.20;99.90;;;;;;4813137;29;20058;-89
2021/01/20 13:19:26;;;;;;;10.57;3.47;;;;;;;;;;4793332;29;20062;-86
2021/01/20 13:21:58;;;;;;;14.50;4.63;;;;;;;;;;4809468;29;20063;-87
2021/01/20 13:24:26;;;;;;;13.50;3.85;;;;;;;;;;4809626;29;20059;-88
2021/01/20 13:26:54;;;;;;;14.52;3.80;;;;;;;;;;4813232;29;20054;-91
2021/01/20 13:29:27;;;;;;;8.15;3.95;;;;;;;;;;4810057;29;20054;-85
2021/01/20 13:31:55;;;;;;;9.93;4.38;;;;;;;;;;4795122;29;20054;-87
2021/01/20 13:34:23;;;;;;;14.48;7.32;;;;;;;;;;4790065;29;20051;-86
2021/01/20 13:36:55;;;;;;;33.75;6.25;;;;;;;;;;4796341;29;20066;-87
2021/01/20 13:39:27;;;;;;;19.02;5.70;;;;;;;;;;4809454;29;20066;-89
2021/01/20 13:41:55;;;;;;;11.55;5.63;;;;;;;;;;4804285;29;20066;-85
2021/01/20 13:44:25;;;;;;;14.10;5.63;;;;;;;;;;4788197;29;20070;-87
2021/01/20 13:46:53;;;;;;;25.55;6.82;;;;;;;;;;4803423;29;20046;-85
2021/01/20 13:49:21;;;;;;;17.05;6.65;;;;;;;;;;4788476;29;20081;-85
2021/01/20 13:51:49;;;;;;;19.55;7.85;;;;;;;;;;4802981;29;20050;-85
2021/01/20 13:54:17;;;;;;;14.00;5.22;;;;;;;;;;4803937;29;20059;-87
2021/01/20 13:56:46;;;;;;;24.10;6.65;;;;;;;;;;4802612;29;20058;-86
2021/01/20 13:59:16;;;;;;;12.65;5.28;;;;;;;;;;4802517;29;20620;-84
2021/01/20 14:01:44;;;;;;;22.48;6.35;;;;;;;;;;4803589;29;20066;-87
2021/01/20 14:04:11;;;;;;;20.23;5.30;;;;;;;;;;4803577;29;20782;-83
2021/01/20 14:06:39;;;;;;;24.10;7.50;;;;;;;;;;4785658;29;20066;-87
2021/01/20 14:09:08;;;;;;;12.05;5.32;;;;;;;;;;4778514;29;20051;-85
2021/01/20 14:11:36;;;;;;;13.20;4.55;;;;;;;;;;4802316;29;20062;-87
2021/01/20 14:14:04;;;;;;;9.77;4.60;;;;;;;;;;4769472;29;20047;-85
2021/01/20 14:16:32;;;;;;;23.55;9.98;;;;;;;;;;4786677;29;20506;-84
2021/01/20 14:19:00;;;;;;;28.55;11.35;;;;;;;;;;4802672;29;20055;-87
2021/01/20 14:21:28;;;;;;;24.27;13.05;;;;;;;;;;4788881;29;20051;-90
2021/01/20 14:23:57;;;;;;;31.05;12.98;;;;;;;;;;4787745;29;20055;-88
2021/01/20 14:26:25;;;;;;;26.52;9.88;;;;;;;;;;4804702;29;20067;-87
2021/01/20 14:28:53;;;;;;;32.65;11.20;;;;;;;;;;4811606;29;20054;-86
2021/01/20 14:31:23;;;;;;;28.38;12.73;;;10.20;99.90;;;;;;4807970;29;20058;-86
2021/01/20 14:33:56;;;;;;;12.82;6.40;;;;;;;;;;4784516;29;20484;-86
2021/01/20 14:36:28;;;;;;;18.80;7.20;;;;;;;;;;4779744;29;20107;-90